Terminal Aerodrome Forecast
Issued by NWS Topeka, KS

Home | Current Version | Previous Version | Text Only | Print | Product List | Glossary Off
Versions: 1 2 3 4 5 6 7 8 9 10 11 12 13 14 15 16 17 18 19 20 21 22

000
FTUS43 KTOP 250100 AAA
TAFTOP
TAF AMD
KTOP 250146Z 2502/2524 31004KT P6SM SCT013 OVC025
      TEMPO 2503/2504 5SM BR SCT025
     FM250400 VRB03KT 3SM BR SCT025 SCT250
     FM250600 00000KT 2SM BR SCT001 SCT150
     FM251300 17005KT 6SM HZ BKN120
     FM251900 36013G22KT P6SM SCT035 BKN100=

USA.gov is the U.S. government's official web portal to all federal, state and local government web resources and services.